createdAt,value
2022-09-18T00:03:41.667Z,0.80
2022-09-18T00:08:45.057Z,0.97
2022-09-18T00:13:47.922Z,0.87
2022-09-18T00:18:51.889Z,1.10
2022-09-18T00:23:57.090Z,1.30
2022-09-18T00:29:00.009Z,0.80
2022-09-18T00:34:07.628Z,0.97
2022-09-18T00:39:11.574Z,1.40
2022-09-18T00:44:33.156Z,0.90
2022-09-18T00:49:38.908Z,1.20
2022-09-18T00:54:45.713Z,1.20
2022-09-18T01:00:05.968Z,1.40
2022-09-18T01:05:11.463Z,1.53
2022-09-18T01:10:28.059Z,2.00
2022-09-18T01:15:39.876Z,1.63
2022-09-18T01:20:57.902Z,1.70
2022-09-18T01:26:10.583Z,1.50
2022-09-18T01:31:20.863Z,1.60
2022-09-18T01:36:27.491Z,2.10
2022-09-18T01:41:31.348Z,1.40
2022-09-18T01:46:38.226Z,1.63
2022-09-18T01:51:47.312Z,1.30
2022-09-18T01:56:55.487Z,1.37
2022-09-18T02:02:01.915Z,1.50
2022-09-18T02:07:14.204Z,1.43
2022-09-18T02:12:21.222Z,1.50
2022-09-18T02:17:29.972Z,1.63
2022-09-18T02:22:35.608Z,1.47
2022-09-18T02:27:40.154Z,1.70
2022-09-18T02:32:44.508Z,1.60
2022-09-18T02:37:57.808Z,1.80
2022-09-18T02:43:16.488Z,1.80
2022-09-18T02:48:47.733Z,1.67
2022-09-18T02:53:57.276Z,1.50
2022-09-18T02:59:06.837Z,1.50
2022-09-18T03:04:14.910Z,2.03
2022-09-18T03:09:17.702Z,2.77
2022-09-18T03:14:20.503Z,2.90
2022-09-18T03:19:24.575Z,3.70
2022-09-18T03:24:27.690Z,4.67
2022-09-18T03:29:30.450Z,4.47
2022-09-18T03:34:34.427Z,3.93
2022-09-18T03:39:37.316Z,3.80
2022-09-18T03:44:39.919Z,3.83
2022-09-18T03:49:43.875Z,4.23
2022-09-18T03:54:46.583Z,4.30
2022-09-18T03:59:49.268Z,4.03
2022-09-18T04:04:53.822Z,3.70
2022-09-18T04:09:56.503Z,2.60
2022-09-18T04:14:59.303Z,2.37
2022-09-18T04:20:03.898Z,2.07
2022-09-18T04:25:10.138Z,1.60
2022-09-18T04:30:14.214Z,1.67
2022-09-18T04:35:18.591Z,2.57
2022-09-18T04:40:22.147Z,2.00
2022-09-18T04:45:24.904Z,1.90
2022-09-18T04:50:28.907Z,1.83
2022-09-18T04:55:31.550Z,2.13
2022-09-18T05:00:35.962Z,2.40
2022-09-18T05:05:40.026Z,1.90
2022-09-18T05:10:43.505Z,1.97
2022-09-18T05:15:46.246Z,2.17
2022-09-18T05:20:50.660Z,1.80
2022-09-18T05:25:53.284Z,2.10
2022-09-18T05:30:59.877Z,2.10
2022-09-18T05:36:05.563Z,1.40
2022-09-18T05:41:08.402Z,2.13
2022-09-18T05:46:11.078Z,1.70
2022-09-18T05:51:15.109Z,2.37
2022-09-18T05:56:18.075Z,1.87
2022-09-18T06:01:20.762Z,2.20
2022-09-18T06:06:24.783Z,1.60
2022-09-18T06:11:28.840Z,1.77
2022-09-18T06:16:31.792Z,1.57
2022-09-18T06:21:35.806Z,2.00
2022-09-18T06:26:38.513Z,1.63
2022-09-18T06:31:41.146Z,1.97
2022-09-18T06:36:45.157Z,2.37
2022-09-18T06:41:47.823Z,1.30
2022-09-18T06:46:50.528Z,1.57
2022-09-18T06:51:54.545Z,1.70
2022-09-18T06:56:57.252Z,1.50
2022-09-18T07:01:59.944Z,1.50
2022-09-18T07:07:03.974Z,1.77
2022-09-18T07:12:07.063Z,1.63
2022-09-18T07:17:13.068Z,1.43
2022-09-18T07:22:21.173Z,1.50
2022-09-18T07:27:23.804Z,1.60
2022-09-18T07:32:26.627Z,1.40
2022-09-18T07:37:30.661Z,1.40
2022-09-18T07:42:33.334Z,1.50
2022-09-18T07:47:35.951Z,1.30
2022-09-18T07:52:39.939Z,1.27
2022-09-18T07:57:42.560Z,1.63
2022-09-18T08:02:45.403Z,1.50
2022-09-18T08:07:49.435Z,1.55
2022-09-18T08:12:54.849Z,1.30
2022-09-18T08:17:58.572Z,1.90
2022-09-18T08:23:05.640Z,1.17
2022-09-18T08:28:08.458Z,1.67
2022-09-18T08:33:11.724Z,1.40
2022-09-18T08:38:16.398Z,1.48
2022-09-18T08:43:35.840Z,1.75
2022-09-18T08:48:42.920Z,1.40
2022-09-18T08:53:51.420Z,1.30
2022-09-18T08:58:56.878Z,1.27
2022-09-18T09:04:04.359Z,1.23
2022-09-18T09:09:25.499Z,1.67
2022-09-18T09:14:57.154Z,1.27
2022-09-18T09:20:07.998Z,1.10
2022-09-18T09:25:22.324Z,1.40
2022-09-18T09:30:25.030Z,1.35
2022-09-18T09:35:31.324Z,1.42
2022-09-18T09:40:42.266Z,1.60
2022-09-18T09:45:48.698Z,1.63
2022-09-18T09:50:57.639Z,1.42
2022-09-18T09:56:12.979Z,1.15
2022-09-18T10:01:21.161Z,1.30
2022-09-18T10:06:41.139Z,1.40
2022-09-18T10:11:56.610Z,0.98
2022-09-18T10:17:03.527Z,1.08
2022-09-18T10:22:08.795Z,1.40
2022-09-18T10:27:15.085Z,1.00
2022-09-18T10:32:33.902Z,1.02
2022-09-18T10:37:40.871Z,1.10
2022-09-18T10:42:44.918Z,1.30
2022-09-18T10:47:47.717Z,1.02
2022-09-18T10:52:53.941Z,1.10
2022-09-18T10:58:08.207Z,1.35
2022-09-18T11:03:24.382Z,0.95
2022-09-18T11:08:31.018Z,1.10
2022-09-18T11:13:42.519Z,0.70
2022-09-18T11:18:48.571Z,0.73
2022-09-18T11:24:03.286Z,0.85
2022-09-18T11:29:18.718Z,1.35
2022-09-18T11:34:26.012Z,1.02
2022-09-18T11:39:34.562Z,0.70
2022-09-18T11:44:39.726Z,0.80
2022-09-18T11:49:46.761Z,0.70
2022-09-18T11:54:52.714Z,0.70
2022-09-18T12:00:01.654Z,0.80
2022-09-18T12:05:16.921Z,0.75
2022-09-18T12:10:24.200Z,0.90
2022-09-18T12:15:33.186Z,0.68
2022-09-18T12:20:42.261Z,0.80
2022-09-18T12:25:53.345Z,0.80
2022-09-18T12:31:06.317Z,1.08
2022-09-18T12:36:41.071Z,1.25
2022-09-18T12:41:54.067Z,0.80
2022-09-18T12:47:08.670Z,0.80
2022-09-18T12:52:24.772Z,0.57
2022-09-18T12:57:45.925Z,0.80
2022-09-18T13:02:54.326Z,0.73
2022-09-18T13:08:02.864Z,0.40
2022-09-18T13:13:12.237Z,0.77
2022-09-18T13:18:37.846Z,0.80
2022-09-18T13:23:43.424Z,0.98
2022-09-18T13:28:46.240Z,0.70
2022-09-18T13:33:55.711Z,0.90
2022-09-18T13:39:02.048Z,1.20
2022-09-18T13:44:05.125Z,1.25
2022-09-18T13:49:20.703Z,0.70
2022-09-18T13:54:27.937Z,0.85
2022-09-18T13:59:46.945Z,1.00
2022-09-18T14:04:59.040Z,0.80
2022-09-18T14:10:04.620Z,0.55
2022-09-18T14:15:21.510Z,0.70
2022-09-18T14:20:26.689Z,0.70
2022-09-18T14:25:45.054Z,0.90
2022-09-18T14:31:12.827Z,1.00
2022-09-18T14:36:16.793Z,0.75
2022-09-18T14:41:22.737Z,1.10
2022-09-18T14:46:26.336Z,0.80
2022-09-18T14:51:40.777Z,1.17
2022-09-18T14:56:56.628Z,0.77
2022-09-18T15:02:13.746Z,0.50
2022-09-18T15:07:21.247Z,0.60
2022-09-18T15:12:26.821Z,0.80
2022-09-18T15:17:32.275Z,0.73
2022-09-18T15:22:36.234Z,0.80
2022-09-18T15:27:39.238Z,1.38
2022-09-18T15:32:46.404Z,1.05
2022-09-18T15:37:53.956Z,0.80
2022-09-18T15:42:59.236Z,0.87
2022-09-18T15:48:22.845Z,1.10
2022-09-18T15:53:29.374Z,1.10
2022-09-18T15:58:43.476Z,0.97
2022-09-18T16:03:46.467Z,0.80
2022-09-18T16:08:52.691Z,0.90
2022-09-18T16:13:56.275Z,1.20
2022-09-18T16:19:10.775Z,1.48
2022-09-18T16:24:28.335Z,1.07
2022-09-18T16:29:30.969Z,1.20
2022-09-18T16:34:33.700Z,1.17
2022-09-18T16:39:37.903Z,0.80
2022-09-18T16:44:40.499Z,1.13
2022-09-18T16:49:45.638Z,1.30
2022-09-18T16:54:49.573Z,0.90
2022-09-18T16:59:52.465Z,0.67
2022-09-18T17:04:55.135Z,0.67
2022-09-18T17:09:59.401Z,1.00
2022-09-18T17:15:02.091Z,0.80
2022-09-18T17:20:05.739Z,0.70
2022-09-18T17:25:11.395Z,0.70
2022-09-18T17:30:14.863Z,0.63
2022-09-18T17:35:18.040Z,0.70
2022-09-18T17:40:22.032Z,0.73
2022-09-18T17:45:24.705Z,0.77
2022-09-18T17:50:27.346Z,0.70
2022-09-18T17:55:34.089Z,0.80
2022-09-18T18:00:39.197Z,0.80
2022-09-18T18:05:41.822Z,0.80
2022-09-18T18:10:45.781Z,0.40
2022-09-18T18:15:50.846Z,0.57
2022-09-18T18:20:54.258Z,0.77
2022-09-18T18:26:01.224Z,0.70
2022-09-18T18:31:06.961Z,1.00
2022-09-18T18:36:11.435Z,0.77
2022-09-18T18:41:16.606Z,0.70
2022-09-18T18:46:19.374Z,0.60
2022-09-18T18:51:22.078Z,0.73
2022-09-18T18:56:26.046Z,0.80
2022-09-18T19:01:29.671Z,1.00
2022-09-18T19:06:32.347Z,0.60
2022-09-18T19:11:42.383Z,0.70
2022-09-18T19:16:45.303Z,0.70
2022-09-18T19:21:48.452Z,1.00
2022-09-18T19:26:52.396Z,0.60
2022-09-18T19:31:55.257Z,0.80
2022-09-18T19:36:59.282Z,0.80
2022-09-18T19:42:06.582Z,0.70
2022-09-18T19:47:17.951Z,0.70
2022-09-18T19:52:22.927Z,0.80
2022-09-18T19:57:28.419Z,1.07
2022-09-18T20:02:31.022Z,0.60
2022-09-18T20:07:33.642Z,0.80
2022-09-18T20:12:39.079Z,0.70
2022-09-18T20:17:41.712Z,0.70
2022-09-18T20:22:44.326Z,0.83
2022-09-18T20:27:48.381Z,0.97
2022-09-18T20:32:51.726Z,1.00
2022-09-18T20:37:55.618Z,0.70
2022-09-18T20:43:01.082Z,0.70
2022-09-18T20:48:04.020Z,0.80
2022-09-18T20:53:08.112Z,0.80
2022-09-18T20:58:12.076Z,0.80
2022-09-18T21:03:15.601Z,0.80
2022-09-18T21:08:18.383Z,0.70
2022-09-18T21:13:22.465Z,0.80
2022-09-18T21:18:25.149Z,0.67
2022-09-18T21:23:45.601Z,0.70
2022-09-18T21:28:51.582Z,0.80
2022-09-18T21:33:54.682Z,0.80
2022-09-18T21:38:57.289Z,0.90
2022-09-18T21:44:04.015Z,0.77
2022-09-18T21:49:09.291Z,0.90
2022-09-18T21:54:15.469Z,0.80
2022-09-18T21:59:19.893Z,0.83
2022-09-18T22:04:26.040Z,1.03
2022-09-18T22:09:30.789Z,0.80
2022-09-18T22:14:38.133Z,0.80
2022-09-18T22:19:41.666Z,0.70
2022-09-18T22:24:44.495Z,1.07
2022-09-18T22:29:48.430Z,0.70
2022-09-18T22:34:52.558Z,0.83
2022-09-18T22:39:55.695Z,0.70
2022-09-18T22:44:59.928Z,0.73
2022-09-18T22:50:04.535Z,0.77
2022-09-18T22:55:07.570Z,0.90
2022-09-18T23:00:16.434Z,0.77
2022-09-18T23:05:19.299Z,0.90
2022-09-18T23:10:22.022Z,0.70
2022-09-18T23:15:26.001Z,1.30
2022-09-18T23:20:28.623Z,0.70
2022-09-18T23:25:31.219Z,0.77
2022-09-18T23:30:36.935Z,0.70
2022-09-18T23:35:39.542Z,0.80
2022-09-18T23:40:42.992Z,1.00
2022-09-18T23:45:46.924Z,1.23
2022-09-18T23:50:51.390Z,0.70
2022-09-18T23:56:00.837Z,1.60
